RYR363C LEMI-EGHH
Flight info
| Callsign | RYR363C |
|---|---|
| Flight time | N/A |
| Altitude | 36000 |
| Route | ALT N851 MITOS N608 COMPI Y90 USKAR DCT MOPAS DCT GIROM DCT AGN DCT SECHE DCT UVELI DCT CNA DCT MANAK UY110 ORIST Y110 THRED |
| Aircraft | B738/M-SDE2E3FGHIRWXY/LB1 |
Departure
| Time | N/A |
|---|---|
| Airport | Region of Murcia International Airport (LEMI) |
Arrival
| Time | 2026-05-06 16:01 |
|---|---|
| Airport | Bournemouth Airport (EGHH) |
| Time | Latitude | Longitude | Altitude | Speed | Heading |
|---|---|---|---|---|---|
| 2026-05-06 15:38 | 49.85982 | -1.80316 | 16078 ft | 307 kts | 348° |
| 2026-05-06 15:38 | 49.88074 | -1.80939 | 15753 ft | 305 kts | 348° |
| 2026-05-06 15:39 | 49.90154 | -1.81558 | 15440 ft | 303 kts | 348° |
| 2026-05-06 15:39 | 49.92221 | -1.82175 | 15127 ft | 302 kts | 348° |
| 2026-05-06 15:39 | 49.94284 | -1.82790 | 14814 ft | 301 kts | 348° |
| 2026-05-06 15:39 | 49.96334 | -1.83402 | 14493 ft | 299 kts | 348° |
| 2026-05-06 15:40 | 49.98373 | -1.84011 | 14185 ft | 298 kts | 348° |
| 2026-05-06 15:40 | 50.00420 | -1.84496 | 13853 ft | 298 kts | 357° |
| 2026-05-06 15:40 | 50.02498 | -1.84367 | 13466 ft | 299 kts | 5° |
| 2026-05-06 15:40 | 50.04561 | -1.84020 | 13129 ft | 298 kts | 6° |
| 2026-05-06 15:41 | 50.06616 | -1.83666 | 12806 ft | 296 kts | 5° |
| 2026-05-06 15:41 | 50.08654 | -1.83352 | 12484 ft | 294 kts | 5° |
| 2026-05-06 15:41 | 50.10681 | -1.83065 | 12176 ft | 292 kts | 4° |
| 2026-05-06 15:41 | 50.12694 | -1.82789 | 11873 ft | 289 kts | 4° |
| 2026-05-06 15:42 | 50.14685 | -1.82417 | 11582 ft | 287 kts | 11° |
| 2026-05-06 15:42 | 50.16611 | -1.81652 | 11312 ft | 285 kts | 15° |
| 2026-05-06 15:42 | 50.18502 | -1.80763 | 11015 ft | 283 kts | 16° |
| 2026-05-06 15:42 | 50.20353 | -1.79874 | 10730 ft | 281 kts | 16° |
| 2026-05-06 15:43 | 50.22221 | -1.78988 | 10428 ft | 280 kts | 16° |
| 2026-05-06 15:43 | 50.24082 | -1.78118 | 10144 ft | 278 kts | 15° |
| 2026-05-06 15:43 | 50.25909 | -1.77275 | 10025 ft | 270 kts | 15° |
| 2026-05-06 15:43 | 50.27707 | -1.76451 | 9728 ft | 269 kts | 15° |
| 2026-05-06 15:44 | 50.29496 | -1.75636 | 9431 ft | 267 kts | 15° |
| 2026-05-06 15:44 | 50.31274 | -1.74829 | 9148 ft | 265 kts | 15° |
| 2026-05-06 15:44 | 50.33041 | -1.74027 | 8870 ft | 263 kts | 15° |
| 2026-05-06 15:44 | 50.34795 | -1.73232 | 8590 ft | 262 kts | 15° |
| 2026-05-06 15:45 | 50.36537 | -1.72443 | 8315 ft | 260 kts | 15° |
| 2026-05-06 15:45 | 50.38273 | -1.71656 | 8037 ft | 258 kts | 15° |
| 2026-05-06 15:45 | 50.39994 | -1.70875 | 7770 ft | 257 kts | 15° |
| 2026-05-06 15:45 | 50.41708 | -1.70098 | 7504 ft | 255 kts | 14° |
| 2026-05-06 15:46 | 50.43387 | -1.69335 | 7395 ft | 247 kts | 14° |
| 2026-05-06 15:46 | 50.45018 | -1.68594 | 7275 ft | 240 kts | 14° |
| 2026-05-06 15:46 | 50.46599 | -1.67875 | 7168 ft | 233 kts | 14° |
| 2026-05-06 15:46 | 50.48151 | -1.67169 | 7056 ft | 233 kts | 14° |
| 2026-05-06 15:47 | 50.49697 | -1.66465 | 6993 ft | 230 kts | 15° |
| 2026-05-06 15:47 | 50.51176 | -1.65587 | 6990 ft | 227 kts | 21° |
| 2026-05-06 15:47 | 50.52701 | -1.64972 | 6976 ft | 228 kts | 357° |
| 2026-05-06 15:47 | 50.54295 | -1.65208 | 6990 ft | 233 kts | 351° |
| 2026-05-06 15:48 | 50.55900 | -1.65570 | 6999 ft | 233 kts | 351° |
| 2026-05-06 15:48 | 50.57499 | -1.65941 | 6992 ft | 232 kts | 351° |
| 2026-05-06 15:48 | 50.59090 | -1.66316 | 6980 ft | 231 kts | 350° |
| 2026-05-06 15:48 | 50.60672 | -1.66690 | 6985 ft | 229 kts | 350° |
| 2026-05-06 15:49 | 50.62248 | -1.67064 | 6988 ft | 229 kts | 351° |
| 2026-05-06 15:49 | 50.63823 | -1.67439 | 6983 ft | 229 kts | 350° |
| 2026-05-06 15:49 | 50.65397 | -1.67812 | 6996 ft | 229 kts | 351° |
| 2026-05-06 15:49 | 50.66953 | -1.68183 | 6997 ft | 230 kts | 350° |
| 2026-05-06 15:50 | 50.68535 | -1.68559 | 6997 ft | 231 kts | 351° |
| 2026-05-06 15:50 | 50.70126 | -1.68938 | 7000 ft | 232 kts | 350° |
| 2026-05-06 15:50 | 50.71725 | -1.69318 | 6992 ft | 233 kts | 350° |
| 2026-05-06 15:50 | 50.73328 | -1.69699 | 7001 ft | 234 kts | 350° |
| 2026-05-06 15:51 | 50.74945 | -1.70085 | 6844 ft | 238 kts | 350° |
| 2026-05-06 15:51 | 50.76593 | -1.70476 | 6494 ft | 239 kts | 350° |
| 2026-05-06 15:51 | 50.78218 | -1.70856 | 6153 ft | 234 kts | 351° |
| 2026-05-06 15:51 | 50.79815 | -1.71234 | 5816 ft | 230 kts | 351° |
| 2026-05-06 15:52 | 50.81376 | -1.71720 | 5454 ft | 227 kts | 337° |
| 2026-05-06 15:52 | 50.82610 | -1.73222 | 5173 ft | 228 kts | 306° |
| 2026-05-06 15:52 | 50.83179 | -1.75540 | 4850 ft | 228 kts | 283° |
| 2026-05-06 15:52 | 50.83439 | -1.78007 | 4509 ft | 227 kts | 281° |
| 2026-05-06 15:53 | 50.83670 | -1.80478 | 4167 ft | 226 kts | 281° |
| 2026-05-06 15:53 | 50.83819 | -1.82104 | 3939 ft | 225 kts | 280° |
| 2026-05-06 15:53 | 50.84043 | -1.84568 | 3624 ft | 228 kts | 280° |
| 2026-05-06 15:53 | 50.84210 | -1.87088 | 3291 ft | 235 kts | 268° |
| 2026-05-06 15:54 | 50.83867 | -1.89634 | 3043 ft | 236 kts | 256° |
| 2026-05-06 15:54 | 50.83410 | -1.92106 | 3014 ft | 233 kts | 256° |
| 2026-05-06 15:54 | 50.82950 | -1.94551 | 2938 ft | 231 kts | 255° |
| 2026-05-06 15:54 | 50.82336 | -1.97813 | 2590 ft | 235 kts | 255° |
| 2026-05-06 15:55 | 50.82016 | -1.99491 | 2377 ft | 237 kts | 255° |
| 2026-05-06 15:55 | 50.81547 | -2.01991 | 2109 ft | 237 kts | 256° |
| 2026-05-06 15:55 | 50.81087 | -2.04465 | 2018 ft | 231 kts | 255° |
| 2026-05-06 15:55 | 50.80636 | -2.06860 | 1982 ft | 224 kts | 255° |
| 2026-05-06 15:56 | 50.80195 | -2.09170 | 2003 ft | 219 kts | 252° |
| 2026-05-06 15:56 | 50.79334 | -2.11185 | 1987 ft | 227 kts | 218° |
| 2026-05-06 15:56 | 50.77896 | -2.12147 | 1971 ft | 226 kts | 184° |
| 2026-05-06 15:56 | 50.76398 | -2.11716 | 2015 ft | 220 kts | 154° |
| 2026-05-06 15:57 | 50.75053 | -2.10571 | 2002 ft | 219 kts | 145° |
| 2026-05-06 15:57 | 50.74105 | -2.08801 | 1988 ft | 209 kts | 104° |
| 2026-05-06 15:57 | 50.74169 | -2.06600 | 2009 ft | 201 kts | 65° |
| 2026-05-06 15:57 | 50.74647 | -2.04573 | 2005 ft | 195 kts | 73° |
| 2026-05-06 15:58 | 50.74956 | -2.02568 | 1985 ft | 180 kts | 72° |
| 2026-05-06 15:58 | 50.75276 | -2.00753 | 1973 ft | 166 kts | 72° |
| 2026-05-06 15:58 | 50.75571 | -1.99024 | 1884 ft | 162 kts | 73° |
| 2026-05-06 15:58 | 50.75843 | -1.97339 | 1671 ft | 156 kts | 72° |
| 2026-05-06 15:59 | 50.76110 | -1.95734 | 1462 ft | 151 kts | 72° |
| 2026-05-06 15:59 | 50.76374 | -1.94141 | 1269 ft | 150 kts | 72° |
| 2026-05-06 15:59 | 50.76637 | -1.92530 | 1054 ft | 153 kts | 72° |
| 2026-05-06 15:59 | 50.76910 | -1.90896 | 839 ft | 154 kts | 72° |
| 2026-05-06 16:00 | 50.77181 | -1.89254 | 602 ft | 155 kts | 74° |
| 2026-05-06 16:00 | 50.77452 | -1.87607 | 370 ft | 155 kts | 73° |
| 2026-05-06 16:00 | 50.77720 | -1.85990 | 196 ft | 150 kts | 73° |
| 2026-05-06 16:00 | 50.77978 | -1.84426 | 43 ft | 140 kts | 74° |
| 2026-05-06 16:01 | 50.78155 | -1.83360 | 44 ft | 58 kts | 75° |
| 2026-05-06 16:01 | 50.78192 | -1.83054 | 43 ft | 11 kts | 132° |
| 2026-05-06 16:01 | 50.78130 | -1.83080 | 45 ft | 10 kts | 237° |
| 2026-05-06 16:01 | 50.78089 | -1.83174 | 45 ft | 11 kts | 235° |
| 2026-05-06 16:02 | 50.78047 | -1.83283 | 43 ft | 11 kts | 244° |
| 2026-05-06 16:02 | 50.78011 | -1.83397 | 45 ft | 12 kts | 244° |
| 2026-05-06 16:02 | 50.77973 | -1.83472 | 45 ft | 7 kts | 212° |
| 2026-05-06 16:02 | 50.77920 | -1.83489 | 45 ft | 8 kts | 173° |
| 2026-05-06 16:03 | 50.77885 | -1.83480 | 45 ft | 2 kts | 159° |
| 2026-05-06 16:03 | 50.77880 | -1.83459 | 43 ft | 3 kts | 89° |
| 2026-05-06 16:03 | 50.77883 | -1.83420 | 45 ft | 3 kts | 85° |
| 2026-05-06 16:03 | 50.77884 | -1.83397 | 45 ft | 0 kts | 86° |
| 2026-05-06 16:04 | 50.77884 | -1.83389 | 45 ft | 1 kts | 86° |
| 2026-05-06 16:04 | 50.77884 | -1.83387 | 45 ft | 0 kts | 86° |